Time;durP1;ratioP1;P1;durP2;ratioP2;P2;SDS_P1;SDS_P2;PMS_P1;PMS_P2;Temp;Humidity;BMP_temperature;BMP_pressure;BME280_temperature;BME280_humidity;BME280_pressure;Samples;Min_cycle;Max_cycle;Signal;HPM_P1;HPM_P2
2021/08/26 00:07:45;;;;;;;9.23;4.63;;;19.10;92.60;;;;;;5093434;28;20039;-63
2021/08/26 00:10:13;;;;;;;9.85;3.80;;;19.20;92.80;;;;;;5092591;28;20020;-62
2021/08/26 00:12:39;;;;;;;8.30;4.40;;;19.30;93.10;;;;;;5093036;28;20414;-63
2021/08/26 00:15:06;;;;;;;7.82;4.50;;;19.30;93.60;;;;;;5093834;28;20024;-63
2021/08/26 00:17:32;;;;;;;7.25;5.22;;;19.10;94.00;;;;;;5092146;28;20081;-62
2021/08/26 00:19:58;;;;;;;9.38;5.70;;;19.20;94.40;;;;;;5093069;28;20028;-62
2021/08/26 00:22:25;;;;;;;15.63;6.15;;;19.10;94.30;;;;;;5092003;28;20087;-63
2021/08/26 00:24:51;;;;;;;7.78;5.47;;;19.10;94.50;;;;;;5091421;28;20044;-63
2021/08/26 00:27:17;;;;;;;7.00;5.18;;;19.10;94.60;;;;;;5093239;28;20081;-63
2021/08/26 00:29:42;;;;;;;8.68;4.70;;;19.10;94.80;;;;;;5091078;28;20338;-62
2021/08/26 00:32:08;;;;;;;7.32;3.95;;;19.10;94.70;;;;;;5093334;28;20455;-62
2021/08/26 00:34:34;;;;;;;10.95;4.20;;;19.10;94.30;;;;;;5091892;28;20025;-63
2021/08/26 00:36:59;;;;;;;19.05;4.70;;;19.00;94.20;;;;;;5092229;28;20115;-63
2021/08/26 00:39:25;;;;;;;6.97;3.92;;;19.00;94.30;;;;;;5093328;28;20038;-63
2021/08/26 00:41:51;;;;;;;6.88;3.78;;;19.00;94.30;;;;;;5092586;28;20028;-63
2021/08/26 00:44:17;;;;;;;7.07;3.85;;;19.00;94.30;;;;;;5091661;28;20465;-63
2021/08/26 00:46:46;;;;;;;6.53;4.15;;;19.10;94.30;;;;;;5092458;28;20479;-62
2021/08/26 00:49:12;;;;;;;8.20;4.38;;;19.10;94.30;;;;;;5092488;28;20031;-62
2021/08/26 00:51:38;;;;;;;5.90;3.53;;;19.10;94.50;;;;;;5090732;28;20156;-61
2021/08/26 00:54:05;;;;;;;6.55;4.28;;;19.10;94.60;;;;;;5091255;28;20041;-61
2021/08/26 00:56:30;;;;;;;4.18;3.33;;;19.10;94.70;;;;;;5092623;28;20085;-61
2021/08/26 00:58:59;;;;;;;7.47;4.53;;;19.00;94.80;;;;;;5090652;28;20036;-61
2021/08/26 01:02:04;;;;;;;6.78;4.25;;;19.10;94.90;;;;;;5091000;28;20206;-62
2021/08/26 01:04:51;;;;;;;8.95;4.43;;;19.00;95.00;;;;;;5092621;28;20020;-61
2021/08/26 01:07:41;;;;;;;5.55;3.78;;;19.10;95.20;;;;;;5091326;28;20400;-61
2021/08/26 01:10:09;;;;;;;5.50;3.92;;;19.00;95.30;;;;;;5092760;28;20070;-61
2021/08/26 01:12:38;;;;;;;5.45;3.88;;;19.10;95.20;;;;;;5092481;28;20043;-61
2021/08/26 01:15:04;;;;;;;6.55;3.83;;;19.10;95.40;;;;;;5092146;28;20445;-63
2021/08/26 01:17:31;;;;;;;4.75;3.63;;;19.10;95.60;;;;;;5092586;28;20048;-62
2021/08/26 01:19:58;;;;;;;11.40;4.00;;;19.00;95.80;;;;;;5090120;28;20032;-62
2021/08/26 01:22:25;;;;;;;5.97;3.63;;;19.00;95.80;;;;;;5090124;28;20059;-62
2021/08/26 01:24:59;;;;;;;5.95;4.03;;;19.10;95.90;;;;;;5091829;28;20020;-62
2021/08/26 01:28:04;;;;;;;4.68;3.13;;;19.10;96.00;;;;;;5092488;28;20107;-62
2021/08/26 01:30:35;;;;;;;4.20;3.30;;;19.10;96.10;;;;;;5086426;28;20055;-62
2021/08/26 01:33:02;;;;;;;6.65;3.70;;;19.00;96.20;;;;;;5090233;28;20377;-62
2021/08/26 01:35:29;;;;;;;6.10;4.03;;;19.00;96.30;;;;;;5092284;28;20113;-62
2021/08/26 01:37:55;;;;;;;4.85;3.65;;;19.00;96.30;;;;;;5091566;28;20032;-61
2021/08/26 01:40:35;;;;;;;14.70;4.72;;;19.00;96.50;;;;;;5091788;28;20088;-61
2021/08/26 01:43:03;;;;;;;9.25;4.03;;;18.90;96.60;;;;;;5089871;28;20035;-62
2021/08/26 01:45:29;;;;;;;5.32;3.67;;;18.90;96.70;;;;;;5091842;28;20374;-61
2021/08/26 01:47:54;;;;;;;4.50;3.58;;;18.90;96.90;;;;;;5091290;28;20032;-62
2021/08/26 01:50:20;;;;;;;13.98;4.20;;;18.90;96.80;;;;;;5091822;28;20032;-62
2021/08/26 01:52:46;;;;;;;5.30;4.05;;;18.90;96.80;;;;;;5091145;28;20124;-62
2021/08/26 01:55:11;;;;;;;5.35;3.90;;;18.70;97.30;;;;;;5090408;28;20461;-62
2021/08/26 01:57:37;;;;;;;6.25;3.63;;;18.70;97.40;;;;;;5091399;28;20024;-62
2021/08/26 02:00:06;;;;;;;6.43;3.85;;;18.70;97.50;;;;;;5090696;28;20445;-62
2021/08/26 02:02:32;;;;;;;10.48;4.55;;;18.70;97.60;;;;;;5091253;28;20080;-62
2021/08/26 02:04:57;;;;;;;5.75;4.10;;;18.80;97.70;;;;;;5089770;28;20145;-62
2021/08/26 02:07:23;;;;;;;5.78;4.20;;;18.70;97.70;;;;;;5076618;28;20376;-62
2021/08/26 02:09:49;;;;;;;5.55;3.90;;;18.80;98.00;;;;;;5071623;28;20150;-62
2021/08/26 02:12:15;;;;;;;6.15;4.22;;;18.70;98.30;;;;;;5071419;28;20519;-62
2021/08/26 02:14:41;;;;;;;6.07;4.85;;;18.80;98.70;;;;;;5069644;28;20119;-66
2021/08/26 02:17:07;;;;;;;5.18;4.40;;;18.70;98.80;;;;;;5071129;28;20038;-62
2021/08/26 02:19:33;;;;;;;6.35;5.18;;;18.80;99.00;;;;;;5071049;28;20024;-62
2021/08/26 02:21:59;;;;;;;6.22;5.18;;;18.70;99.20;;;;;;5070251;28;20139;-62
2021/08/26 02:24:25;;;;;;;11.73;6.38;;;18.70;99.60;;;;;;5071087;28;20085;-62
2021/08/26 02:26:51;;;;;;;8.25;5.80;;;18.70;99.90;;;;;;5070030;28;20497;-62
2021/08/26 02:29:16;;;;;;;7.75;5.45;;;18.60;99.90;;;;;;5070293;28;20033;-61
2021/08/26 02:31:42;;;;;;;7.07;5.45;;;18.40;99.90;;;;;;5069115;28;20029;-70
2021/08/26 02:34:08;;;;;;;9.18;6.15;;;18.40;99.90;;;;;;5068396;28;20318;-61
2021/08/26 02:36:33;;;;;;;8.07;5.88;;;18.30;99.90;;;;;;5070980;28;20025;-61
2021/08/26 02:38:59;;;;;;;10.30;5.25;;;18.30;99.90;;;;;;5070138;28;20029;-61
2021/08/26 02:41:25;;;;;;;5.60;5.00;;;18.20;99.90;;;;;;5068968;28;20115;-61
2021/08/26 02:43:50;;;;;;;8.55;5.47;;;18.10;99.90;;;;;;5068555;28;20032;-61
2021/08/26 02:46:16;;;;;;;5.22;4.68;;;18.00;99.90;;;;;;5070684;28;20537;-61
2021/08/26 02:48:42;;;;;;;5.28;4.63;;;17.90;99.90;;;;;;5070426;28;20037;-61
2021/08/26 02:51:07;;;;;;;6.22;5.60;;;17.90;99.90;;;;;;5070095;28;20048;-61
2021/08/26 02:53:33;;;;;;;5.95;5.35;;;17.80;99.90;;;;;;5070503;28;20035;-61
2021/08/26 02:55:59;;;;;;;5.80;5.20;;;17.80;99.90;;;;;;5069870;28;20498;-61
2021/08/26 02:58:25;;;;;;;7.82;5.13;;;17.70;99.90;;;;;;5068953;28;20083;-61
2021/08/26 03:00:51;;;;;;;5.72;5.07;;;17.70;99.90;;;;;;5068359;28;20064;-61
2021/08/26 03:03:16;;;;;;;5.63;4.85;;;17.60;99.90;;;;;;5070310;28;20052;-61
2021/08/26 03:05:42;;;;;;;6.70;4.65;;;17.60;99.90;;;;;;5069947;28;20032;-61
2021/08/26 03:08:08;;;;;;;10.15;4.70;;;17.60;99.90;;;;;;5069511;28;20232;-61
2021/08/26 03:10:33;;;;;;;5.70;5.07;;;17.60;99.90;;;;;;5070330;28;20025;-61
2021/08/26 03:12:59;;;;;;;5.28;4.47;;;17.70;99.90;;;;;;5069989;28;20029;-61
2021/08/26 03:15:25;;;;;;;7.03;5.22;;;17.60;99.90;;;;;;5069022;28;20473;-61
2021/08/26 03:17:51;;;;;;;6.20;4.53;;;17.60;99.90;;;;;;5069457;28;20481;-61
2021/08/26 03:20:16;;;;;;;6.88;4.63;;;17.70;99.90;;;;;;5070126;28;20031;-61
2021/08/26 03:22:42;;;;;;;15.25;5.63;;;17.70;99.90;;;;;;5068753;28;20053;-62
2021/08/26 03:25:08;;;;;;;5.25;4.57;;;17.70;99.90;;;;;;5069495;28;20028;-61
2021/08/26 03:27:34;;;;;;;5.43;4.55;;;17.70;99.90;;;;;;5068629;28;20047;-61
2021/08/26 03:29:59;;;;;;;7.82;5.35;;;17.70;99.90;;;;;;5067858;28;20634;-61
2021/08/26 03:32:25;;;;;;;4.93;4.45;;;17.70;99.90;;;;;;5068625;28;20029;-62
2021/08/26 03:34:51;;;;;;;7.55;4.95;;;17.70;99.90;;;;;;5067821;28;20111;-61
2021/08/26 03:37:17;;;;;;;7.30;5.05;;;17.60;99.90;;;;;;5068760;28;20025;-62
2021/08/26 03:39:42;;;;;;;7.82;5.32;;;17.60;99.90;;;;;;5070446;28;20032;-62
2021/08/26 03:42:08;;;;;;;6.40;5.07;;;17.70;99.90;;;;;;5069488;28;20430;-62
2021/08/26 03:44:34;;;;;;;5.45;4.72;;;17.60;99.90;;;;;;5071604;28;20085;-62
2021/08/26 03:46:59;;;;;;;5.45;4.90;;;17.70;99.90;;;;;;5073433;28;20020;-62
2021/08/26 03:49:28;;;;;;;5.38;4.85;;;17.70;99.90;;;;;;5072423;28;20097;-62
2021/08/26 03:51:55;;;;;;;5.45;4.10;;;17.60;99.90;;;;;;5073256;28;20044;-62
2021/08/26 03:54:20;;;;;;;5.13;4.57;;;17.70;99.90;;;;;;5072463;28;20036;-62
2021/08/26 03:56:46;;;;;;;4.68;3.63;;;17.70;99.90;;;;;;5073438;28;20028;-62
2021/08/26 03:59:11;;;;;;;4.53;4.13;;;17.70;99.90;;;;;;5072983;28;20481;-62
2021/08/26 04:01:38;;;;;;;5.10;4.32;;;17.80;99.90;;;;;;5073557;28;20060;-62
2021/08/26 04:04:04;;;;;;;5.22;4.72;;;17.70;99.90;;;;;;5072589;28;20526;-61
2021/08/26 04:06:29;;;;;;;6.20;4.32;;;17.70;99.90;;;;;;5071902;28;20107;-61
2021/08/26 04:08:55;;;;;;;7.13;4.45;;;17.80;99.90;;;;;;5072866;28;20036;-62
2021/08/26 04:11:21;;;;;;;4.65;3.88;;;17.80;99.90;;;;;;5073376;28;20374;-62
2021/08/26 04:13:46;;;;;;;4.45;4.05;;;17.90;99.90;;;;;;5073706;28;20461;-62
2021/08/26 04:16:12;;;;;;;6.95;5.25;;;17.90;99.90;;;;;;5073142;28;20101;-62
2021/08/26 04:18:37;;;;;;;5.00;4.47;;;17.80;99.90;;;;;;5073470;28;20101;-62
2021/08/26 04:21:03;;;;;;;7.95;5.00;;;17.80;99.90;;;;;;5072692;28;20385;-61
2021/08/26 04:23:29;;;;;;;6.70;4.40;;;17.80;99.90;;;;;;5073107;28;20064;-62
2021/08/26 04:25:54;;;;;;;5.72;5.22;;;17.70;99.90;;;;;;5072659;28;20138;-62
2021/08/26 04:28:20;;;;;;;5.50;5.00;;;17.60;99.90;;;;;;5071795;28;20089;-62
2021/08/26 04:30:45;;;;;;;6.10;5.50;;;17.70;99.90;;;;;;5071719;28;20037;-62
2021/08/26 04:33:11;;;;;;;6.30;4.32;;;17.60;99.90;;;;;;5071052;28;20028;-62
2021/08/26 04:35:37;;;;;;;5.55;4.47;;;17.70;99.90;;;;;;5073057;28;20028;-62
2021/08/26 04:38:02;;;;;;;6.63;4.53;;;17.70;99.90;;;;;;5072627;28;20160;-62
2021/08/26 04:40:28;;;;;;;6.88;4.80;;;17.60;99.90;;;;;;5072706;28;20027;-62
2021/08/26 04:42:54;;;;;;;6.15;4.82;;;17.60;99.90;;;;;;5070906;28;20343;-62
2021/08/26 04:45:19;;;;;;;5.13;4.53;;;17.60;99.90;;;;;;5073100;28;20103;-61
2021/08/26 04:47:45;;;;;;;4.80;4.30;;;17.60;99.90;;;;;;5072745;28;20020;-62
2021/08/26 04:50:11;;;;;;;5.05;4.30;;;17.60;99.90;;;;;;5071822;28;20062;-62
2021/08/26 04:52:36;;;;;;;4.25;3.67;;;17.50;99.90;;;;;;5071457;28;20082;-61
2021/08/26 04:55:02;;;;;;;4.82;4.03;;;17.50;99.90;;;;;;5070451;28;20039;-62
2021/08/26 04:57:28;;;;;;;4.63;3.55;;;17.40;99.90;;;;;;5070829;28;20031;-61
2021/08/26 04:59:53;;;;;;;4.68;3.30;;;17.40;99.90;;;;;;5070713;28;20028;-62
2021/08/26 05:02:19;;;;;;;6.82;4.10;;;17.40;99.90;;;;;;5070844;28;20119;-61
2021/08/26 05:04:44;;;;;;;7.65;4.13;;;17.40;99.90;;;;;;5078775;28;20480;-61
2021/08/26 05:07:10;;;;;;;4.70;3.78;;;17.40;99.90;;;;;;5090843;28;20028;-61
2021/08/26 05:09:36;;;;;;;5.78;4.38;;;17.40;99.90;;;;;;5090962;28;20434;-61
2021/08/26 05:12:03;;;;;;;7.22;3.67;;;17.40;99.90;;;;;;5091389;28;20036;-62
2021/08/26 05:14:31;;;;;;;4.28;3.88;;;17.40;99.90;;;;;;5090740;28;20025;-62
2021/08/26 05:16:58;;;;;;;4.10;3.80;;;17.40;99.90;;;;;;5091491;28;20440;-63
2021/08/26 05:19:24;;;;;;;4.15;3.78;;;17.40;99.90;;;;;;5090743;28;20028;-61
2021/08/26 05:21:50;;;;;;;7.13;4.20;;;17.40;99.90;;;;;;5090406;28;20130;-61
2021/08/26 05:24:16;;;;;;;4.30;3.90;;;17.40;99.90;;;;;;5090134;28;20492;-61
2021/08/26 05:26:42;;;;;;;5.20;3.92;;;17.40;99.90;;;;;;5091335;28;20081;-62
2021/08/26 05:29:08;;;;;;;4.72;3.83;;;17.40;99.90;;;;;;5084632;28;20104;-63
2021/08/26 05:31:33;;;;;;;4.93;4.05;;;17.30;99.90;;;;;;5072059;28;20028;-63
2021/08/26 05:33:59;;;;;;;4.82;3.67;;;17.30;99.90;;;;;;5081010;28;20035;-63
2021/08/26 05:36:25;;;;;;;3.80;3.50;;;17.20;99.90;;;;;;5089612;28;20036;-63
2021/08/26 05:38:50;;;;;;;3.72;3.42;;;17.20;99.90;;;;;;5071152;28;20032;-62
2021/08/26 05:41:16;;;;;;;3.58;2.90;;;17.30;99.90;;;;;;5070259;28;20082;-62
2021/08/26 05:43:42;;;;;;;3.78;3.33;;;17.30;99.90;;;;;;5069174;28;20387;-63
2021/08/26 05:46:07;;;;;;;4.68;3.13;;;17.40;99.90;;;;;;5069784;28;20039;-62
2021/08/26 05:48:33;;;;;;;5.38;3.30;;;17.30;99.90;;;;;;5081039;28;20032;-61
2021/08/26 05:50:59;;;;;;;6.78;3.85;;;17.20;99.90;;;;;;5077249;28;20033;-62
2021/08/26 05:53:25;;;;;;;5.38;3.63;;;17.30;99.90;;;;;;5090970;28;20032;-62
2021/08/26 05:55:51;;;;;;;3.65;3.25;;;17.30;99.90;;;;;;5091664;28;20028;-62
2021/08/26 05:58:17;;;;;;;4.93;3.22;;;17.30;99.90;;;;;;5091694;28;20032;-62
2021/08/26 06:00:43;;;;;;;4.72;4.22;;;17.40;99.90;;;;;;5090944;28;20020;-61
2021/08/26 06:03:08;;;;;;;4.90;4.10;;;17.30;99.90;;;;;;5091549;28;20043;-62
2021/08/26 06:05:34;;;;;;;4.25;3.85;;;17.30;99.90;;;;;;5091719;28;20031;-62
2021/08/26 06:07:59;;;;;;;5.50;3.17;;;17.30;99.90;;;;;;5089376;28;20028;-61
2021/08/26 06:10:25;;;;;;;3.78;3.35;;;17.40;99.90;;;;;;5089736;28;20081;-60
2021/08/26 06:12:52;;;;;;;3.83;3.03;;;17.60;99.90;;;;;;5089784;28;20409;-61
2021/08/26 06:15:18;;;;;;;3.47;2.80;;;17.60;99.90;;;;;;5090356;28;20122;-62
2021/08/26 06:17:44;;;;;;;5.80;3.00;;;17.60;99.90;;;;;;5089543;28;20058;-61
2021/08/26 06:20:12;;;;;;;5.93;3.10;;;17.60;99.90;;;;;;5088923;28;20063;-61
2021/08/26 06:22:40;;;;;;;3.38;2.50;;;17.70;99.90;;;;;;5090526;28;20048;-61
2021/08/26 06:25:06;;;;;;;3.13;2.55;;;17.60;99.90;;;;;;5088936;28;20028;-62
2021/08/26 06:27:32;;;;;;;2.97;1.95;;;17.50;99.90;;;;;;5083806;28;20102;-61
2021/08/26 06:29:58;;;;;;;3.40;2.85;;;17.60;99.90;;;;;;5089326;28;20111;-62
2021/08/26 06:32:24;;;;;;;10.65;2.50;;;17.70;99.90;;;;;;5090689;28;20445;-61
2021/08/26 06:34:50;;;;;;;3.33;2.20;;;17.70;99.90;;;;;;5090834;28;20076;-62
2021/08/26 06:37:16;;;;;;;2.42;2.22;;;17.70;99.90;;;;;;5088728;28;20067;-62
2021/08/26 06:39:41;;;;;;;3.92;2.15;;;17.80;99.90;;;;;;5089082;28;20058;-61
2021/08/26 06:42:07;;;;;;;5.45;2.30;;;17.80;99.90;;;;;;5088796;28;20157;-62
2021/08/26 06:44:33;;;;;;;13.43;2.35;;;17.70;99.90;;;;;;5090642;28;20470;-71
2021/08/26 06:46:58;;;;;;;2.45;1.73;;;17.80;99.90;;;;;;5088399;28;20028;-62
2021/08/26 06:49:24;;;;;;;5.35;1.90;;;17.70;99.90;;;;;;5090744;28;20024;-62
2021/08/26 06:51:50;;;;;;;1.40;1.23;;;17.80;99.90;;;;;;5090725;28;20481;-62
2021/08/26 06:54:16;;;;;;;1.35;1.23;;;17.80;99.90;;;;;;5089947;28;20042;-62
2021/08/26 06:56:42;;;;;;;2.65;1.48;;;17.70;99.90;;;;;;5090487;28;20030;-62
2021/08/26 06:59:08;;;;;;;2.05;1.48;;;17.60;99.90;;;;;;5089338;28;20028;-62
2021/08/26 07:01:34;;;;;;;3.80;1.95;;;17.60;99.90;;;;;;5075230;28;20462;-61
2021/08/26 07:04:00;;;;;;;2.28;1.50;;;17.50;99.90;;;;;;5070015;28;20098;-61
2021/08/26 07:06:26;;;;;;;2.13;1.20;;;17.40;99.90;;;;;;5068668;28;20399;-66
2021/08/26 07:08:52;;;;;;;2.65;1.40;;;17.80;99.90;;;;;;5069413;28;20396;-66
2021/08/26 07:11:18;;;;;;;3.42;1.58;;;18.20;99.90;;;;;;5069085;28;20493;-66
2021/08/26 07:13:44;;;;;;;2.92;1.38;;;18.40;99.90;;;;;;5069825;28;20035;-66
2021/08/26 07:16:09;;;;;;;2.85;1.30;;;18.60;99.90;;;;;;5068434;28;20382;-65
2021/08/26 07:18:35;;;;;;;2.88;1.50;;;18.60;99.90;;;;;;5070691;28;20187;-67
2021/08/26 07:21:01;;;;;;;3.65;1.90;;;18.60;99.90;;;;;;5073674;28;20035;-65
2021/08/26 07:23:27;;;;;;;3.10;1.80;;;18.70;99.90;;;;;;5074041;28;20390;-66
2021/08/26 07:25:52;;;;;;;5.65;2.30;;;18.90;99.90;;;;;;5074133;28;20377;-65
2021/08/26 07:28:18;;;;;;;5.90;1.60;;;18.90;99.90;;;;;;5074053;28;20339;-66
2021/08/26 07:30:44;;;;;;;5.28;1.80;;;18.90;99.90;;;;;;5093751;28;20039;-65
2021/08/26 07:33:09;;;;;;;4.72;2.08;;;19.00;99.90;;;;;;5093671;28;20024;-66
2021/08/26 07:35:35;;;;;;;2.38;1.20;;;19.00;99.90;;;;;;5094266;28;20107;-65
2021/08/26 07:38:01;;;;;;;5.28;1.67;;;19.20;99.90;;;;;;5093263;28;20032;-66
2021/08/26 07:40:27;;;;;;;8.85;2.28;;;19.10;99.90;;;;;;5092729;28;20021;-65
2021/08/26 07:42:52;;;;;;;4.45;2.20;;;19.20;99.90;;;;;;5092036;28;20364;-66
2021/08/26 07:45:18;;;;;;;6.05;2.58;;;19.40;99.90;;;;;;5092048;28;20027;-65
2021/08/26 07:47:44;;;;;;;4.72;2.20;;;19.80;99.90;;;;;;5092598;28;20458;-64
2021/08/26 07:50:10;;;;;;;4.88;1.58;;;20.00;99.90;;;;;;5093110;28;20430;-65
2021/08/26 07:52:36;;;;;;;6.07;2.15;;;20.10;99.90;;;;;;5092571;28;20032;-65
2021/08/26 07:55:03;;;;;;;5.95;1.95;;;20.20;99.90;;;;;;5092335;28;20389;-65
2021/08/26 07:57:30;;;;;;;4.00;1.60;;;20.40;99.90;;;;;;5093672;28;20028;-67
2021/08/26 07:59:55;;;;;;;5.85;1.95;;;20.40;99.90;;;;;;5092495;28;20028;-64
2021/08/26 08:02:21;;;;;;;4.53;1.40;;;20.40;99.50;;;;;;5093281;28;20517;-65
2021/08/26 08:04:47;;;;;;;3.50;1.65;;;20.70;99.80;;;;;;5093874;28;20488;-65
2021/08/26 08:07:13;;;;;;;8.90;1.70;;;20.70;99.00;;;;;;5093399;28;20028;-64
2021/08/26 08:09:38;;;;;;;6.90;1.70;;;20.50;99.90;;;;;;5093826;28;20028;-64
2021/08/26 08:12:04;;;;;;;4.28;1.65;;;20.60;99.60;;;;;;5091091;28;20032;-67
2021/08/26 08:14:30;;;;;;;6.13;1.70;;;20.40;98.90;;;;;;5090397;28;20464;-64
2021/08/26 08:16:57;;;;;;;2.92;1.40;;;20.40;99.80;;;;;;5091616;28;20032;-64
2021/08/26 08:19:23;;;;;;;3.05;1.42;;;20.50;99.90;;;;;;5092592;28;20051;-64
2021/08/26 08:21:49;;;;;;;5.22;1.63;;;20.70;99.30;;;;;;5091209;28;20075;-65
2021/08/26 08:24:14;;;;;;;5.88;1.38;;;20.90;98.80;;;;;;5092524;28;20052;-65
2021/08/26 08:26:40;;;;;;;3.83;1.10;;;21.00;98.60;;;;;;5093571;28;20148;-65
2021/08/26 08:29:05;;;;;;;2.45;1.35;;;21.30;97.50;;;;;;5091784;28;20027;-65
2021/08/26 08:31:31;;;;;;;3.53;1.25;;;21.50;97.10;;;;;;5091942;28;20032;-65
2021/08/26 08:33:57;;;;;;;7.60;1.25;;;21.40;97.10;;;;;;5091856;28;20027;-65
2021/08/26 08:36:22;;;;;;;2.75;1.58;;;21.40;96.90;;;;;;5091331;28;20266;-64
2021/08/26 08:38:48;;;;;;;2.03;1.10;;;21.20;97.30;;;;;;5093188;28;20405;-65
2021/08/26 08:41:16;;;;;;;2.97;1.33;;;21.30;96.70;;;;;;5091119;28;20024;-64
2021/08/26 08:43:42;;;;;;;2.97;1.40;;;21.30;95.40;;;;;;5092479;28;20028;-65
2021/08/26 08:46:09;;;;;;;3.42;1.42;;;21.30;95.30;;;;;;5090627;28;20024;-65
2021/08/26 08:48:38;;;;;;;4.05;1.27;;;21.40;95.80;;;;;;5084478;28;20098;-65
2021/08/26 08:51:04;;;;;;;6.15;1.90;;;21.50;96.80;;;;;;5088941;28;20466;-71
2021/08/26 08:53:30;;;;;;;12.27;1.98;;;21.50;96.30;;;;;;5073294;28;20309;-65
2021/08/26 08:55:57;;;;;;;4.05;1.23;;;21.90;95.30;;;;;;5072628;28;20505;-65
2021/08/26 08:58:22;;;;;;;3.13;0.93;;;22.30;95.10;;;;;;5071536;28;20472;-64
2021/08/26 09:00:48;;;;;;;1.33;0.90;;;22.40;94.60;;;;;;5070711;28;20032;-66
2021/08/26 09:03:14;;;;;;;2.05;1.10;;;22.90;93.90;;;;;;5069881;28;20452;-64
2021/08/26 09:05:50;;;;;;;2.00;0.93;;;23.10;92.40;;;;;;5070960;28;20028;-64
2021/08/26 09:08:16;;;;;;;2.15;0.88;;;23.00;91.80;;;;;;5071389;28;20033;-64
2021/08/26 09:10:43;;;;;;;3.78;1.10;;;22.80;91.40;;;;;;5070917;28;20105;-65
2021/08/26 09:13:08;;;;;;;3.25;1.02;;;22.70;92.80;;;;;;5069303;28;20033;-65
2021/08/26 09:15:35;;;;;;;2.10;1.23;;;22.70;91.80;;;;;;5087423;28;20484;-65
2021/08/26 09:18:17;;;;;;;3.10;0.82;;;22.60;91.70;;;;;;5070363;28;20029;-65
2021/08/26 09:20:54;;;;;;;4.22;0.98;;;22.60;91.60;;;;;;5071999;28;20020;-65
2021/08/26 09:23:23;;;;;;;1.92;1.00;;;22.50;90.90;;;;;;5069700;28;20053;-65
2021/08/26 09:25:49;;;;;;;3.92;1.00;;;22.30;90.70;;;;;;5071124;28;20029;-65
2021/08/26 09:28:25;;;;;;;2.25;0.80;;;22.20;91.60;;;;;;5085477;28;20441;-65
2021/08/26 09:31:17;;;;;;;2.20;0.93;;;22.00;93.50;;;;;;5089251;28;20123;-51
2021/08/26 09:34:04;;;;;;;3.17;1.38;;;22.30;95.50;;;;;;5091730;28;20035;-51
2021/08/26 09:36:56;;;;;;;6.60;1.15;;;22.40;94.60;;;;;;5090975;28;20040;-50
2021/08/26 09:39:25;;;;;;;4.70;1.33;;;22.40;94.50;;;;;;5087196;28;20147;-50
2021/08/26 09:42:02;;;;;;;2.45;0.90;;;22.30;93.60;;;;;;5088517;28;20091;-52
2021/08/26 09:44:30;;;;;;;2.28;0.88;;;22.40;94.10;;;;;;5091168;28;20074;-51
2021/08/26 09:47:02;;;;;;;1.42;0.52;;;22.40;92.80;;;;;;5091527;28;20433;-51
2021/08/26 09:49:30;;;;;;;2.15;0.73;;;22.60;93.30;;;;;;5091636;28;20452;-51
2021/08/26 09:52:06;;;;;;;2.42;0.88;;;22.60;93.20;;;;;;5090287;28;20525;-51
2021/08/26 09:54:36;;;;;;;2.38;0.98;;;22.40;92.10;;;;;;5089614;28;20020;-51
2021/08/26 09:57:04;;;;;;;4.07;0.82;;;22.50;92.90;;;;;;5090655;28;20078;-51
2021/08/26 09:59:48;;;;;;;1.98;0.80;;;22.40;91.30;;;;;;5089416;28;20335;-50
2021/08/26 10:02:15;;;;;;;3.22;1.15;;;22.50;92.00;;;;;;5089346;28;20426;-50
2021/08/26 10:04:41;;;;;;;6.72;0.77;;;22.50;92.30;;;;;;5091355;28;20179;-51
2021/08/26 10:07:08;;;;;;;3.90;0.95;;;22.40;91.80;;;;;;5091547;28;20428;-50
2021/08/26 10:09:33;;;;;;;3.10;1.35;;;22.20;91.20;;;;;;5091145;28;20388;-50
2021/08/26 10:11:59;;;;;;;2.88;1.23;;;22.20;91.40;;;;;;5089124;28;20028;-52
2021/08/26 10:14:26;;;;;;;2.30;0.93;;;22.20;91.80;;;;;;5090651;28;20161;-51
2021/08/26 10:16:53;;;;;;;2.92;1.05;;;22.30;92.00;;;;;;5091395;28;20080;-51
2021/08/26 10:19:19;;;;;;;2.75;1.23;;;22.20;91.50;;;;;;5090616;28;20035;-51
2021/08/26 10:21:46;;;;;;;2.85;1.25;;;22.20;91.60;;;;;;5089276;28;20048;-52
2021/08/26 10:24:13;;;;;;;2.83;0.90;;;22.30;91.90;;;;;;5091263;28;20477;-50
2021/08/26 10:26:43;;;;;;;2.58;0.70;;;22.30;92.10;;;;;;5090703;28;20035;-50
2021/08/26 10:29:10;;;;;;;1.58;0.77;;;22.40;91.60;;;;;;5089438;28;20035;-58
2021/08/26 10:31:38;;;;;;;3.15;1.17;;;22.40;91.40;;;;;;5088555;28;20481;-51
2021/08/26 10:34:09;;;;;;;2.13;1.10;;;22.20;91.80;;;;;;5088519;28;20024;-51
2021/08/26 10:36:54;;;;;;;3.05;0.90;;;22.10;91.80;;;;;;5088799;28;20028;-51
2021/08/26 10:39:42;;;;;;;1.98;0.60;;;22.10;91.90;;;;;;5089240;28;20465;-50
2021/08/26 10:42:16;;;;;;;2.40;0.80;;;22.00;92.00;;;;;;5087946;28;20381;-50
2021/08/26 10:45:07;;;;;;;6.32;2.25;;;21.90;91.80;;;;;;5089261;28;20461;-50
2021/08/26 10:47:51;;;;;;;1.85;0.77;;;21.80;91.90;;;;;;5088380;28;20221;-51
2021/08/26 10:50:39;;;;;;;4.43;0.90;;;21.90;92.20;;;;;;5089962;28;20040;-50
2021/08/26 10:53:15;;;;;;;2.47;0.57;;;21.90;92.20;;;;;;5089119;28;20100;-51
2021/08/26 10:55:47;;;;;;;2.80;0.90;;;22.00;92.20;;;;;;5090857;28;20028;-51
2021/08/26 10:58:25;;;;;;;4.22;1.00;;;22.10;92.40;;;;;;5089658;28;20495;-50
2021/08/26 11:00:55;;;;;;;8.82;1.60;;;22.30;91.80;;;;;;5089902;28;20039;-51
2021/08/26 11:03:35;;;;;;;2.45;1.02;;;22.20;91.60;;;;;;5089286;28;20031;-51
2021/08/26 11:06:22;;;;;;;3.83;0.95;;;22.10;92.30;;;;;;5088791;28;20028;-51
2021/08/26 11:08:51;;;;;;;4.10;1.17;;;22.10;91.80;;;;;;5076658;28;20050;-50
2021/08/26 11:11:26;;;;;;;4.30;1.33;;;22.00;91.40;;;;;;5088438;28;20115;-50
2021/08/26 11:14:01;;;;;;;3.95;1.10;;;21.90;92.00;;;;;;5088208;28;20023;-49
2021/08/26 11:16:27;;;;;;;4.72;1.17;;;21.70;91.80;;;;;;5089170;28;20317;-48
2021/08/26 11:19:18;;;;;;;6.75;0.90;;;21.60;92.10;;;;;;5090075;28;20115;-49
2021/08/26 11:21:44;;;;;;;3.83;0.88;;;21.70;92.00;;;;;;5089802;28;20064;-49
2021/08/26 11:24:16;;;;;;;3.15;1.10;;;21.70;92.80;;;;;;5090425;28;20027;-48
2021/08/26 11:26:46;;;;;;;3.65;1.15;;;21.80;92.60;;;;;;5087951;28;20516;-48
2021/08/26 11:29:17;;;;;;;11.40;1.58;;;21.60;91.80;;;;;;5088171;28;20031;-58
2021/08/26 11:31:58;;;;;;;8.63;1.55;;;21.60;92.70;;;;;;5068472;28;20033;-50
2021/08/26 11:34:36;;;;;;;4.88;1.10;;;21.70;92.60;;;;;;5069062;28;20021;-48
2021/08/26 11:37:07;;;;;;;5.63;1.42;;;21.60;92.20;;;;;;5068181;28;20025;-48
2021/08/26 11:39:42;;;;;;;6.00;1.48;;;21.60;93.10;;;;;;5067714;28;20036;-49
2021/08/26 11:42:17;;;;;;;4.05;1.33;;;21.80;92.40;;;;;;5067154;28;20037;-48
2021/08/26 11:44:44;;;;;;;8.25;1.42;;;21.90;92.40;;;;;;5068318;28;20104;-49
2021/08/26 11:47:10;;;;;;;4.43;1.75;;;21.90;92.40;;;;;;5068254;28;20075;-49
2021/08/26 11:49:40;;;;;;;4.53;1.55;;;21.80;92.70;;;;;;5068848;28;20020;-48
2021/08/26 11:52:11;;;;;;;9.30;1.50;;;21.80;92.70;;;;;;5069896;28;20028;-48
2021/08/26 11:54:43;;;;;;;3.70;0.82;;;21.50;93.00;;;;;;5068627;28;20040;-48
2021/08/26 11:57:09;;;;;;;7.28;1.35;;;21.60;93.00;;;;;;5069088;28;20334;-48
2021/08/26 11:59:37;;;;;;;3.00;1.02;;;21.40;92.40;;;;;;5068222;28;20028;-48
2021/08/26 12:02:21;;;;;;;3.90;1.45;;;21.30;93.40;;;;;;5089367;28;20036;-48
2021/08/26 12:04:51;;;;;;;5.95;1.30;;;21.40;92.60;;;;;;5089837;28;20036;-48
2021/08/26 12:07:25;;;;;;;5.18;1.15;;;21.40;92.70;;;;;;5091295;28;20084;-55
2021/08/26 12:09:51;;;;;;;9.50;1.55;;;21.50;93.20;;;;;;5091821;28;20349;-49
2021/08/26 12:12:17;;;;;;;6.40;2.30;;;21.60;92.90;;;;;;5091615;28;20039;-55
2021/08/26 12:14:43;;;;;;;3.90;1.35;;;21.40;92.60;;;;;;5092790;28;20422;-48
2021/08/26 12:17:20;;;;;;;3.90;0.90;;;21.40;92.90;;;;;;5092709;28;20028;-48
2021/08/26 12:19:49;;;;;;;8.65;1.55;;;21.40;92.90;;;;;;5092994;28;20028;-48
2021/08/26 12:22:19;;;;;;;2.75;0.95;;;21.50;92.50;;;;;;5090873;28;20188;-55
2021/08/26 12:24:55;;;;;;;4.45;1.23;;;21.70;92.30;;;;;;5093076;28;20016;-48
2021/08/26 12:27:21;;;;;;;8.02;1.55;;;21.90;92.80;;;;;;5091607;28;20115;-49
2021/08/26 12:29:49;;;;;;;5.75;0.98;;;21.80;92.00;;;;;;5092040;28;20433;-50
2021/08/26 12:32:29;;;;;;;5.50;1.55;;;21.90;92.20;;;;;;5091271;28;20032;-54
2021/08/26 12:35:25;;;;;;;5.45;1.35;;;22.20;92.00;;;;;;5091623;28;20028;-49
2021/08/26 12:37:51;;;;;;;4.53;1.50;;;22.30;91.60;;;;;;5092438;28;20432;-48
2021/08/26 12:40:17;;;;;;;2.10;0.50;;;22.60;91.50;;;;;;5090631;28;20035;-55
2021/08/26 12:42:55;;;;;;;6.82;1.00;;;22.70;91.00;;;;;;5091306;28;20493;-49
2021/08/26 12:45:21;;;;;;;1.67;0.77;;;22.90;91.10;;;;;;5091390;28;20029;-50
2021/08/26 12:47:47;;;;;;;2.15;0.60;;;22.90;90.80;;;;;;5091068;28;20028;-49
2021/08/26 12:50:13;;;;;;;2.10;0.60;;;22.80;90.70;;;;;;5090865;28;20353;-49
2021/08/26 12:52:39;;;;;;;2.08;0.82;;;23.00;91.20;;;;;;5090332;28;20024;-49
2021/08/26 12:55:10;;;;;;;2.00;0.55;;;23.60;90.00;;;;;;5091369;28;20439;-49
2021/08/26 12:57:36;;;;;;;2.95;0.93;;;24.30;89.10;;;;;;5090623;28;20020;-49